Terminal Aerodrome Forecast
Issued by NWS

Home | Current Version | Previous Version | Text Only | Print | Product List | Glossary On
Versions: 1 2 3 4 5 6 7 8 9 10 11 12 13 14
000
FTUS43 KTOP 050520
TAFFOE
TAF
KFOE 050520Z 0506/0606 15005KT P6SM BKN110
     FM050900 14003KT P6SM -SHRA VCTS SCT012 BKN040CB
      TEMPO 0510/0513 5SM BR OVC012
     FM051500 10007KT P6SM -SHRA VCTS SCT015 BKN025CB
     FM052000 11009KT P6SM VCTS BKN050CB
     FM060100 07005KT P6SM BKN250=

USA.gov is the U.S. government's official web portal to all federal, state and local government web resources and services.